Paso Robles, California
Current Conditions -  °F | °C
As of 5:16 AM on Thursday 18 Dec 2014 (Local Time) from KPRB Reporting Station
Overcast Overcast  
Wind Chill: 48°   Ceiling: 2900
Heat Index: 48°   Visibility: 10mi
Dew Point: 45°   Wind: 3mph
Humidity: 89%   Direction: 100°E
Pressure: 30.11"   Gusts: NA
Location:  35.67°N, 120.63°W
Report Text: KPRB 181316Z AUTO 10003KT 10SM BKN029 OVC034 09/07 A3011 RMK AO2 T00890072 TSNO
Loading
Personal Weather Stations






























Interactive Weather Map New forecast layout! Learn more

10-Day Weather Forecast

Advertisements
Track Severe Weather on mobile